createdAt,value
2022-10-01T00:08:47.158Z,18.39
2022-10-01T00:18:53.480Z,18.39
2022-10-01T00:29:01.791Z,18.38
2022-10-01T00:39:08.250Z,18.34
2022-10-01T00:49:16.038Z,18.30
2022-10-01T00:59:22.033Z,18.30
2022-10-01T01:09:30.344Z,18.27
2022-10-01T01:19:36.764Z,18.26
2022-10-01T01:29:42.904Z,18.26
2022-10-01T01:39:49.556Z,18.23
2022-10-01T01:49:55.849Z,18.21
2022-10-01T02:00:02.528Z,18.18
2022-10-01T02:10:09.501Z,18.18
2022-10-01T02:20:14.789Z,18.20
2022-10-01T02:30:23.086Z,18.17
2022-10-01T02:40:29.490Z,18.16
2022-10-01T02:50:35.582Z,18.14
2022-10-01T03:00:41.777Z,18.14
2022-10-01T03:10:48.171Z,18.14
2022-10-01T03:20:54.528Z,18.16
2022-10-01T03:31:00.797Z,18.16
2022-10-01T03:41:06.891Z,18.16
2022-10-01T03:51:17.834Z,18.14
2022-10-01T04:01:26.400Z,18.14
2022-10-01T04:11:34.419Z,18.14
2022-10-01T04:21:40.697Z,18.14
2022-10-01T04:31:47.177Z,18.13
2022-10-01T04:41:53.512Z,18.14
2022-10-01T04:51:59.717Z,18.14
2022-10-01T05:02:06.272Z,18.14
2022-10-01T05:12:12.330Z,18.14
2022-10-01T05:22:18.690Z,18.14
2022-10-01T05:32:25.186Z,18.16
2022-10-01T05:42:30.853Z,18.16
2022-10-01T05:52:37.253Z,18.16
2022-10-01T06:02:43.307Z,18.16
2022-10-01T06:22:57.085Z,17.19
2022-10-01T06:33:03.689Z,17.21
2022-10-01T06:43:10.037Z,17.21
2022-10-01T06:53:17.751Z,16.55
2022-10-01T07:03:23.638Z,16.72
2022-10-01T07:13:29.678Z,16.72
2022-10-01T07:23:35.951Z,17.13
2022-10-01T07:33:42.867Z,17.17
2022-10-01T07:43:49.388Z,17.17
2022-10-01T07:53:55.942Z,17.11
2022-10-01T08:04:02.517Z,17.13
2022-10-01T08:14:09.260Z,16.93
2022-10-01T08:24:15.824Z,16.93
2022-10-01T08:34:23.125Z,16.62
2022-10-01T08:44:29.994Z,16.62
2022-10-01T08:54:37.043Z,16.54
2022-10-01T09:04:43.825Z,16.34
2022-10-01T09:14:50.028Z,16.16
2022-10-01T09:24:56.817Z,16.16
2022-10-01T09:35:04.788Z,16.48
2022-10-01T09:45:11.753Z,16.48
2022-10-01T09:55:19.061Z,16.23
2022-10-01T10:05:25.808Z,16.23
2022-10-01T10:15:32.590Z,16.45
2022-10-01T10:25:39.648Z,16.24
2022-10-01T10:35:46.687Z,16.46
2022-10-01T10:45:53.310Z,16.84
2022-10-01T10:55:59.833Z,16.63
2022-10-01T11:06:06.685Z,16.68
2022-10-01T11:16:13.216Z,16.97
2022-10-01T11:26:19.672Z,17.48
2022-10-01T11:36:26.691Z,17.34
2022-10-01T11:46:34.108Z,17.34
2022-10-01T11:56:41.731Z,17.54
2022-10-01T12:06:48.451Z,17.54
2022-10-01T12:16:55.086Z,17.77
2022-10-01T12:27:01.566Z,17.52
2022-10-01T12:37:07.888Z,17.73
2022-10-01T12:47:14.603Z,17.73
2022-10-01T12:57:21.205Z,17.71
2022-10-01T13:07:28.273Z,17.54
2022-10-01T13:17:35.138Z,17.54
2022-10-01T13:27:42.324Z,18.03
2022-10-01T13:37:48.658Z,17.91
2022-10-01T13:47:54.984Z,17.91
2022-10-01T13:58:01.263Z,18.68
2022-10-01T14:08:11.528Z,18.68
2022-10-01T14:18:17.704Z,18.38
2022-10-01T14:28:23.985Z,18.40
2022-10-01T14:38:29.750Z,18.40
2022-10-01T14:48:37.420Z,18.41
2022-10-01T14:58:42.755Z,18.25
2022-10-01T15:08:48.516Z,18.09
2022-10-01T15:18:56.404Z,18.09
2022-10-01T15:29:01.835Z,18.31
2022-10-01T15:39:09.482Z,18.52
2022-10-01T15:49:15.430Z,18.23
2022-10-01T15:59:22.792Z,18.66
2022-10-01T16:09:28.600Z,18.42
2022-10-01T16:19:36.488Z,18.42
2022-10-01T16:29:43.196Z,18.18
2022-10-01T16:39:50.671Z,18.32
2022-10-01T16:49:56.732Z,17.98
2022-10-01T17:00:04.837Z,17.98
2022-10-01T17:10:11.268Z,17.92
2022-10-01T17:20:18.945Z,17.86
2022-10-01T17:30:24.739Z,17.80
2022-10-01T17:40:32.127Z,17.80
2022-10-01T17:50:38.088Z,17.73
2022-10-01T18:00:46.380Z,17.71
2022-10-01T18:10:53.046Z,17.67
2022-10-01T18:20:59.464Z,17.80
2022-10-01T18:31:05.879Z,17.78
2022-10-01T18:41:13.495Z,17.78
2022-10-01T18:51:19.135Z,17.77
2022-10-01T19:01:25.618Z,17.77
2022-10-01T19:11:32.072Z,17.58
2022-10-01T19:21:38.506Z,17.58
2022-10-01T19:31:44.670Z,17.71
2022-10-01T19:41:51.551Z,17.59
2022-10-01T19:51:57.987Z,17.59
2022-10-01T20:02:05.644Z,17.42
2022-10-01T20:12:11.432Z,17.41
2022-10-01T20:22:16.873Z,17.33
2022-10-01T20:32:22.417Z,17.41
2022-10-01T20:42:30.427Z,17.34
2022-10-01T20:52:36.375Z,17.21
2022-10-01T21:02:44.260Z,17.21
2022-10-01T21:12:50.393Z,17.01
2022-10-01T21:23:00.239Z,16.95
2022-10-01T21:33:06.041Z,16.95
2022-10-01T21:44:30.680Z,16.82
2022-10-01T21:54:35.410Z,16.84
2022-10-01T22:04:43.600Z,16.81
2022-10-01T22:14:49.651Z,16.68
2022-10-01T22:24:56.098Z,16.52
2022-10-01T22:35:02.048Z,16.52
2022-10-01T22:45:08.197Z,16.59
2022-10-01T22:55:14.340Z,16.34
2022-10-01T23:05:20.536Z,16.30
2022-10-01T23:15:26.846Z,16.21
2022-10-01T23:25:34.896Z,16.12
2022-10-01T23:35:41.056Z,16.12
2022-10-01T23:45:47.409Z,16.36
2022-10-01T23:55:53.673Z,16.16
